createdAt,value
2022-11-30T00:00:38.810Z,0.00
2022-11-30T00:01:38.821Z,0.00
2022-11-30T00:02:38.886Z,0.00
2022-11-30T00:03:38.844Z,0.00
2022-11-30T00:04:38.850Z,0.00
2022-11-30T00:05:38.860Z,0.00
2022-11-30T00:06:38.870Z,0.00
2022-11-30T00:07:38.900Z,0.00
2022-11-30T00:08:38.890Z,0.00
2022-11-30T00:09:38.971Z,0.00
2022-11-30T00:10:38.912Z,0.00
2022-11-30T00:11:38.924Z,0.00
2022-11-30T00:12:38.932Z,0.00
2022-11-30T00:13:38.943Z,0.00
2022-11-30T00:14:38.954Z,0.00
2022-11-30T00:15:38.964Z,0.00
2022-11-30T00:16:39.025Z,0.00
2022-11-30T00:17:38.989Z,0.00
2022-11-30T00:18:38.996Z,0.00
2022-11-30T00:19:39.005Z,0.00
2022-11-30T00:20:39.015Z,0.00
2022-11-30T00:21:39.027Z,0.00
2022-11-30T00:22:39.035Z,0.00
2022-11-30T00:23:39.046Z,0.00
2022-11-30T00:24:39.069Z,0.00
2022-11-30T00:25:39.065Z,0.00
2022-11-30T00:26:39.075Z,0.00
2022-11-30T00:27:39.089Z,0.00
2022-11-30T00:28:39.110Z,0.00
2022-11-30T00:29:39.106Z,0.00
2022-11-30T00:30:39.190Z,0.00
2022-11-30T00:31:39.131Z,0.00
2022-11-30T00:32:39.141Z,0.00
2022-11-30T00:33:39.148Z,0.00
2022-11-30T00:34:39.160Z,0.00
2022-11-30T00:35:39.172Z,0.00
2022-11-30T00:36:39.178Z,0.00
2022-11-30T00:37:39.189Z,0.00
2022-11-30T00:38:39.199Z,0.00
2022-11-30T00:39:39.211Z,0.00
2022-11-30T00:40:39.224Z,0.00
2022-11-30T00:41:39.230Z,0.00
2022-11-30T00:42:39.249Z,0.00
2022-11-30T00:43:39.255Z,0.00
2022-11-30T00:44:39.264Z,0.00
2022-11-30T00:45:39.272Z,0.00
2022-11-30T00:46:39.282Z,0.00
2022-11-30T00:47:39.292Z,0.00
2022-11-30T00:48:39.309Z,0.00
2022-11-30T00:49:39.314Z,0.00
2022-11-30T00:50:39.323Z,0.00
2022-11-30T00:51:39.335Z,0.00
2022-11-30T00:52:39.344Z,0.00
2022-11-30T00:53:39.358Z,0.00
2022-11-30T00:54:39.364Z,0.00
2022-11-30T00:55:39.373Z,0.00
2022-11-30T00:56:39.383Z,0.00
2022-11-30T00:57:39.395Z,0.00
2022-11-30T00:58:39.406Z,0.00
2022-11-30T00:59:39.414Z,0.00
2022-11-30T01:00:39.426Z,0.00
2022-11-30T01:01:39.493Z,0.00
2022-11-30T01:02:39.507Z,0.00
2022-11-30T01:03:39.459Z,0.00
2022-11-30T01:04:39.467Z,0.00
2022-11-30T01:05:39.484Z,0.00
2022-11-30T01:06:39.488Z,0.00
2022-11-30T01:07:39.537Z,0.00
2022-11-30T01:08:39.517Z,0.00
2022-11-30T01:09:39.521Z,0.00
2022-11-30T01:10:39.531Z,0.00
2022-11-30T01:11:39.540Z,0.00
2022-11-30T01:12:39.550Z,0.00
2022-11-30T01:13:39.558Z,0.00
2022-11-30T01:14:39.570Z,0.00
2022-11-30T01:15:39.652Z,0.00
2022-11-30T01:16:39.590Z,0.00
2022-11-30T01:17:39.601Z,0.00
2022-11-30T01:18:39.610Z,0.00
2022-11-30T01:19:39.621Z,0.00
2022-11-30T01:20:39.630Z,0.00
2022-11-30T01:21:39.640Z,0.00
2022-11-30T01:22:39.650Z,0.00
2022-11-30T01:23:39.662Z,0.00
2022-11-30T01:24:39.673Z,0.00
2022-11-30T01:25:39.682Z,0.00
2022-11-30T01:26:39.694Z,0.00
2022-11-30T01:27:39.702Z,0.00
2022-11-30T01:28:39.713Z,0.00
2022-11-30T01:29:39.720Z,0.00
2022-11-30T01:30:39.834Z,0.00
2022-11-30T01:31:39.743Z,0.00
2022-11-30T01:32:39.752Z,0.00
2022-11-30T01:33:39.764Z,0.00
2022-11-30T01:34:39.774Z,0.00
2022-11-30T01:35:39.785Z,0.00
2022-11-30T01:36:39.795Z,0.00
2022-11-30T01:37:39.803Z,0.00
2022-11-30T01:38:39.814Z,0.00
2022-11-30T01:39:39.826Z,0.00
2022-11-30T01:40:39.833Z,0.00
2022-11-30T01:41:39.845Z,0.00
2022-11-30T01:42:39.856Z,0.00
2022-11-30T01:43:39.864Z,0.00
2022-11-30T01:44:39.873Z,0.00
2022-11-30T01:45:39.885Z,0.00
2022-11-30T01:46:39.902Z,0.00
2022-11-30T01:47:39.912Z,0.00
2022-11-30T01:48:39.914Z,0.00
2022-11-30T01:49:39.925Z,0.00
2022-11-30T01:50:39.938Z,0.00
2022-11-30T01:51:39.946Z,0.00
2022-11-30T01:52:39.956Z,0.00
2022-11-30T01:53:39.970Z,0.00
2022-11-30T01:54:39.977Z,0.00
2022-11-30T01:55:39.991Z,0.00
2022-11-30T01:56:39.997Z,0.00
2022-11-30T01:57:40.010Z,0.00
2022-11-30T01:58:40.021Z,0.00
2022-11-30T01:59:40.026Z,0.00
2022-11-30T02:00:40.036Z,0.00
2022-11-30T02:01:40.113Z,0.00
2022-11-30T02:02:40.144Z,0.00
2022-11-30T02:03:40.068Z,0.00
2022-11-30T02:04:40.081Z,0.00
2022-11-30T02:05:40.089Z,0.00
2022-11-30T02:06:40.101Z,0.00
2022-11-30T02:07:40.230Z,0.00
2022-11-30T02:08:40.180Z,0.00
2022-11-30T02:09:40.132Z,0.00
2022-11-30T02:10:40.138Z,0.00
2022-11-30T02:11:40.147Z,0.00
2022-11-30T02:12:40.158Z,0.00
2022-11-30T02:13:40.167Z,0.00
2022-11-30T02:14:40.180Z,0.00
2022-11-30T02:15:40.233Z,0.00
2022-11-30T02:16:40.206Z,0.00
2022-11-30T02:17:40.208Z,0.00
2022-11-30T02:18:40.221Z,0.00
2022-11-30T02:19:40.237Z,0.00
2022-11-30T02:20:40.240Z,0.00
2022-11-30T02:21:40.250Z,0.00
2022-11-30T02:22:40.260Z,0.00
2022-11-30T02:23:42.678Z,0.00
2022-11-30T02:24:40.283Z,0.00
2022-11-30T02:25:40.290Z,0.00
2022-11-30T02:26:40.302Z,0.00
2022-11-30T02:27:40.309Z,0.00
2022-11-30T02:28:40.321Z,0.00
2022-11-30T02:29:40.331Z,0.00
2022-11-30T02:30:40.347Z,0.00
2022-11-30T02:31:40.351Z,0.00
2022-11-30T02:32:40.358Z,0.00
2022-11-30T02:33:40.369Z,0.00
2022-11-30T02:34:40.379Z,0.00
2022-11-30T02:35:40.391Z,0.00
2022-11-30T02:36:40.652Z,0.00
2022-11-30T02:37:40.409Z,0.00
2022-11-30T02:38:40.421Z,0.00
2022-11-30T02:39:40.431Z,0.00
2022-11-30T02:40:40.439Z,0.00
2022-11-30T02:41:40.449Z,0.00
2022-11-30T02:42:40.459Z,0.00
2022-11-30T02:43:40.473Z,0.00
2022-11-30T02:44:40.483Z,0.00
2022-11-30T02:45:40.491Z,0.00
2022-11-30T02:46:40.540Z,0.00
2022-11-30T02:47:40.512Z,0.00
2022-11-30T02:48:40.524Z,0.00
2022-11-30T02:49:40.531Z,0.00
2022-11-30T02:50:40.540Z,0.00
2022-11-30T02:51:40.562Z,0.00
2022-11-30T02:52:40.567Z,0.00
2022-11-30T02:53:40.569Z,0.00
2022-11-30T02:54:40.580Z,0.00
2022-11-30T02:55:40.590Z,0.00
2022-11-30T02:56:40.602Z,0.00
2022-11-30T02:57:40.622Z,0.00
2022-11-30T02:58:40.633Z,0.00
2022-11-30T02:59:40.652Z,0.00
2022-11-30T03:00:40.639Z,0.00
2022-11-30T03:01:40.684Z,0.00
2022-11-30T03:02:40.707Z,0.00
2022-11-30T03:03:40.671Z,0.00
2022-11-30T03:04:40.678Z,0.00
2022-11-30T03:05:40.689Z,0.00
2022-11-30T03:06:40.698Z,0.00
2022-11-30T03:07:40.756Z,0.00
2022-11-30T03:08:40.720Z,0.00
2022-11-30T03:09:40.728Z,0.00
2022-11-30T03:10:40.739Z,0.00
2022-11-30T03:11:40.751Z,0.00
2022-11-30T03:12:40.770Z,0.00
2022-11-30T03:13:40.768Z,0.00
2022-11-30T03:14:40.778Z,0.00
2022-11-30T03:15:40.794Z,0.00
2022-11-30T03:16:40.801Z,0.00
2022-11-30T03:17:40.808Z,0.00
2022-11-30T03:18:40.818Z,0.00
2022-11-30T03:19:40.830Z,0.00
2022-11-30T03:20:40.840Z,0.00
2022-11-30T03:21:40.851Z,0.00
2022-11-30T03:22:40.859Z,0.00
2022-11-30T03:23:40.871Z,0.00
2022-11-30T03:24:40.878Z,0.00
2022-11-30T03:25:40.888Z,0.00
2022-11-30T03:26:40.899Z,0.00
2022-11-30T03:27:40.909Z,0.00
2022-11-30T03:28:40.922Z,0.00
2022-11-30T03:29:40.929Z,0.00
2022-11-30T03:30:40.941Z,0.00
2022-11-30T03:31:40.951Z,0.00
2022-11-30T03:32:40.960Z,0.00
2022-11-30T03:33:40.969Z,0.00
2022-11-30T03:34:40.980Z,0.00
2022-11-30T03:35:40.989Z,0.00
2022-11-30T03:36:41.500Z,0.00
2022-11-30T03:37:41.009Z,0.00
2022-11-30T03:38:41.022Z,0.00
2022-11-30T03:39:41.030Z,0.00
2022-11-30T03:40:41.039Z,0.00
2022-11-30T03:41:41.050Z,0.00
2022-11-30T03:42:41.061Z,0.00
2022-11-30T03:43:41.069Z,0.00
2022-11-30T03:44:41.079Z,0.00
2022-11-30T03:45:41.091Z,0.00
2022-11-30T03:46:41.173Z,0.00
2022-11-30T03:47:41.111Z,0.00
2022-11-30T03:48:41.119Z,0.00
2022-11-30T03:49:41.132Z,0.00
2022-11-30T03:50:41.140Z,0.00
2022-11-30T03:51:41.150Z,0.00
2022-11-30T03:52:41.165Z,0.00
2022-11-30T03:53:41.169Z,0.00
2022-11-30T03:54:41.182Z,0.00
2022-11-30T03:55:41.190Z,0.00
2022-11-30T03:56:41.201Z,0.00
2022-11-30T03:57:41.210Z,0.00
2022-11-30T03:58:41.220Z,0.00
2022-11-30T03:59:41.230Z,0.00
2022-11-30T04:00:41.239Z,0.00
2022-11-30T04:01:41.348Z,0.00
2022-11-30T04:02:44.711Z,0.00
2022-11-30T04:03:41.269Z,0.00
2022-11-30T04:04:41.282Z,0.00
2022-11-30T04:05:41.292Z,0.00
2022-11-30T04:06:41.298Z,0.00
2022-11-30T04:07:41.372Z,0.00
2022-11-30T04:08:41.320Z,0.00
2022-11-30T04:09:41.328Z,0.00
2022-11-30T04:10:41.346Z,0.00
2022-11-30T04:11:41.349Z,0.00
2022-11-30T04:12:41.357Z,0.00
2022-11-30T04:13:41.369Z,0.00
2022-11-30T04:14:41.380Z,0.00
2022-11-30T04:15:41.447Z,0.00
2022-11-30T04:16:41.400Z,0.00
2022-11-30T04:17:41.409Z,0.00
2022-11-30T04:18:41.419Z,0.00
2022-11-30T04:19:41.430Z,0.00
2022-11-30T04:20:41.442Z,0.00
2022-11-30T04:21:41.448Z,0.00
2022-11-30T04:22:41.570Z,0.00
2022-11-30T04:23:41.469Z,0.00
2022-11-30T04:24:41.475Z,0.00
2022-11-30T04:25:41.488Z,0.00
2022-11-30T04:26:41.497Z,0.00
2022-11-30T04:27:41.508Z,0.00
2022-11-30T04:28:41.522Z,0.00
2022-11-30T04:29:41.529Z,0.00
2022-11-30T04:30:41.540Z,0.00
2022-11-30T04:31:41.591Z,0.00
2022-11-30T04:32:41.555Z,0.00
2022-11-30T04:33:41.568Z,0.00
2022-11-30T04:34:41.578Z,0.00
2022-11-30T04:35:41.587Z,0.00
2022-11-30T04:36:41.596Z,0.00
2022-11-30T04:37:41.607Z,0.00
2022-11-30T04:38:41.615Z,0.00
2022-11-30T04:39:41.629Z,0.00
2022-11-30T04:40:41.639Z,0.00
2022-11-30T04:41:41.646Z,0.00
2022-11-30T04:42:41.658Z,0.00
2022-11-30T04:43:41.669Z,0.00
2022-11-30T04:44:41.675Z,0.00
2022-11-30T04:45:41.686Z,0.00
2022-11-30T04:46:41.716Z,0.00
2022-11-30T04:47:41.708Z,0.00
2022-11-30T04:48:41.719Z,0.00
2022-11-30T04:49:41.726Z,0.00
2022-11-30T04:50:41.736Z,0.00
2022-11-30T04:51:41.747Z,0.00
2022-11-30T04:52:41.755Z,0.00
2022-11-30T04:53:41.772Z,0.00
2022-11-30T04:54:41.780Z,0.00
2022-11-30T04:55:41.787Z,0.00
2022-11-30T04:56:41.795Z,0.00
2022-11-30T04:57:41.806Z,0.00
2022-11-30T04:58:41.814Z,0.00
2022-11-30T04:59:41.824Z,0.00
2022-11-30T05:00:41.834Z,0.00
2022-11-30T05:01:41.895Z,0.00
2022-11-30T05:02:41.855Z,0.00
2022-11-30T05:03:41.866Z,0.00
2022-11-30T05:04:41.906Z,0.00
2022-11-30T05:05:41.884Z,0.00
2022-11-30T05:06:41.894Z,0.00
2022-11-30T05:07:41.955Z,0.00
2022-11-30T05:08:41.919Z,0.00
2022-11-30T05:09:41.925Z,0.00
2022-11-30T05:10:41.934Z,0.00
2022-11-30T05:11:41.944Z,0.00
2022-11-30T05:12:41.952Z,0.00
2022-11-30T05:13:41.962Z,0.00
2022-11-30T05:14:41.974Z,0.00
2022-11-30T05:15:41.983Z,0.00
2022-11-30T05:16:41.994Z,0.00
2022-11-30T05:17:42.004Z,0.00
2022-11-30T05:18:42.026Z,0.00
2022-11-30T05:19:42.024Z,0.00
2022-11-30T05:20:42.032Z,0.00
2022-11-30T05:21:45.586Z,0.00
2022-11-30T05:22:42.055Z,0.00
2022-11-30T05:23:42.080Z,0.00
2022-11-30T05:24:42.074Z,0.00
2022-11-30T05:25:42.087Z,0.00
2022-11-30T05:26:42.090Z,0.00
2022-11-30T05:27:42.107Z,0.00
2022-11-30T05:28:42.112Z,0.00
2022-11-30T05:29:42.120Z,0.00
2022-11-30T05:30:42.132Z,0.00
2022-11-30T05:31:42.184Z,0.00
2022-11-30T05:32:42.150Z,0.00
2022-11-30T05:33:42.160Z,0.00
2022-11-30T05:34:50.767Z,0.00
2022-11-30T05:35:42.180Z,0.00
2022-11-30T05:36:42.191Z,0.00
2022-11-30T05:37:42.202Z,0.00
2022-11-30T05:38:42.210Z,0.00
2022-11-30T05:39:42.220Z,0.00
2022-11-30T05:40:42.233Z,0.00
2022-11-30T05:41:42.239Z,0.00
2022-11-30T05:42:42.253Z,0.00
2022-11-30T05:43:42.265Z,0.00
2022-11-30T05:44:42.270Z,0.00
2022-11-30T05:45:42.280Z,0.00
2022-11-30T05:46:42.321Z,0.00
2022-11-30T05:47:42.300Z,0.00
2022-11-30T05:48:42.310Z,0.00
2022-11-30T05:49:42.319Z,0.00
2022-11-30T05:50:42.328Z,0.00
2022-11-30T05:51:42.352Z,0.00
2022-11-30T05:52:42.345Z,0.00
2022-11-30T05:53:42.358Z,0.00
2022-11-30T05:54:42.368Z,0.00
2022-11-30T05:55:42.380Z,0.00
2022-11-30T05:56:42.384Z,0.00
2022-11-30T05:57:42.399Z,0.00
2022-11-30T05:58:42.411Z,0.00
2022-11-30T05:59:42.420Z,0.00
2022-11-30T06:00:42.439Z,0.00
2022-11-30T06:01:42.522Z,0.00
2022-11-30T06:02:42.536Z,0.00
2022-11-30T06:03:42.455Z,0.00
2022-11-30T06:04:42.465Z,0.00
2022-11-30T06:05:42.476Z,0.00
2022-11-30T06:06:42.494Z,0.00
2022-11-30T06:07:42.548Z,0.00
2022-11-30T06:08:42.507Z,0.00
2022-11-30T06:09:42.515Z,0.00
2022-11-30T06:10:42.525Z,0.00
2022-11-30T06:11:42.533Z,0.00
2022-11-30T06:12:42.543Z,0.00
2022-11-30T06:13:42.554Z,0.00
2022-11-30T06:14:42.564Z,0.00
2022-11-30T06:15:42.574Z,0.00
2022-11-30T06:16:42.630Z,0.00
2022-11-30T06:17:42.592Z,0.00
2022-11-30T06:18:42.602Z,0.00
2022-11-30T06:19:42.613Z,0.00
2022-11-30T06:20:42.622Z,0.00
2022-11-30T06:21:42.641Z,0.00
2022-11-30T06:22:42.646Z,0.00
2022-11-30T06:23:42.652Z,0.00
2022-11-30T06:24:42.666Z,0.00
2022-11-30T06:25:42.673Z,0.00
2022-11-30T06:26:42.682Z,0.00
2022-11-30T06:27:42.694Z,0.00
2022-11-30T06:28:47.674Z,0.00
2022-11-30T06:29:42.710Z,0.00
2022-11-30T06:30:42.722Z,0.00
2022-11-30T06:31:42.806Z,0.00
2022-11-30T06:32:42.739Z,0.00
2022-11-30T06:33:42.762Z,0.00
2022-11-30T06:34:42.760Z,0.00
2022-11-30T06:35:42.769Z,0.00
2022-11-30T06:36:42.830Z,0.00
2022-11-30T06:37:42.789Z,0.00
2022-11-30T06:38:42.799Z,0.00
2022-11-30T06:40:05.488Z,0.00
2022-11-30T06:40:42.820Z,0.00
2022-11-30T06:41:42.830Z,0.00
2022-11-30T06:42:42.840Z,0.00
2022-11-30T06:43:42.848Z,0.00
2022-11-30T06:44:42.858Z,0.00
2022-11-30T06:45:42.915Z,0.00
2022-11-30T06:46:42.878Z,0.00
2022-11-30T06:47:42.887Z,0.00
2022-11-30T06:48:42.894Z,0.00
2022-11-30T06:49:42.904Z,0.00
2022-11-30T06:50:48.454Z,0.00
2022-11-30T06:51:42.924Z,0.00
2022-11-30T06:52:42.934Z,0.00
2022-11-30T06:53:42.943Z,0.00
2022-11-30T06:54:42.956Z,0.00
2022-11-30T06:55:42.964Z,0.00
2022-11-30T06:56:42.973Z,0.00
2022-11-30T06:57:42.984Z,0.00
2022-11-30T06:58:42.998Z,0.00
2022-11-30T06:59:43.002Z,5.63
2022-11-30T07:00:43.045Z,5.63
2022-11-30T07:01:43.020Z,5.63
2022-11-30T07:02:43.031Z,5.63
2022-11-30T07:03:43.085Z,5.63
2022-11-30T07:04:43.049Z,5.63
2022-11-30T07:05:43.059Z,5.63
2022-11-30T07:06:43.071Z,5.63
2022-11-30T07:07:43.126Z,5.63
2022-11-30T07:08:43.090Z,5.63
2022-11-30T07:09:43.102Z,11.25
2022-11-30T07:10:43.110Z,11.25
2022-11-30T07:11:43.122Z,11.25
2022-11-30T07:12:43.129Z,11.25
2022-11-30T07:13:43.139Z,11.25
2022-11-30T07:14:43.148Z,11.25
2022-11-30T07:15:43.157Z,11.25
2022-11-30T07:16:43.217Z,11.25
2022-11-30T07:17:43.176Z,16.88
2022-11-30T07:18:43.186Z,16.88
2022-11-30T07:19:43.209Z,16.88
2022-11-30T07:20:43.206Z,16.88
2022-11-30T07:21:43.214Z,16.88
2022-11-30T07:22:43.230Z,16.88
2022-11-30T07:23:43.238Z,16.88
2022-11-30T07:24:43.245Z,22.50
2022-11-30T07:25:43.255Z,22.50
2022-11-30T07:26:43.265Z,22.50
2022-11-30T07:27:43.280Z,22.50
2022-11-30T07:28:43.284Z,22.50
2022-11-30T07:29:43.297Z,22.50
2022-11-30T07:30:43.305Z,22.50
2022-11-30T07:31:43.332Z,22.50
2022-11-30T07:32:43.325Z,28.13
2022-11-30T07:33:43.336Z,28.13
2022-11-30T07:34:43.344Z,28.13
2022-11-30T07:35:43.357Z,28.13
2022-11-30T07:36:43.364Z,28.13
2022-11-30T07:37:43.375Z,28.13
2022-11-30T07:38:43.383Z,33.75
2022-11-30T07:39:43.394Z,33.75
2022-11-30T07:40:43.401Z,33.75
2022-11-30T07:41:43.414Z,33.75
2022-11-30T07:42:43.424Z,33.75
2022-11-30T07:43:43.433Z,39.38
2022-11-30T07:44:43.443Z,39.38
2022-11-30T07:45:43.478Z,39.38
2022-11-30T07:46:43.464Z,39.38
2022-11-30T07:47:43.472Z,39.38
2022-11-30T07:48:43.481Z,39.38
2022-11-30T07:49:43.489Z,39.38
2022-11-30T07:50:43.501Z,45.00
2022-11-30T07:51:43.511Z,45.00
2022-11-30T07:52:43.522Z,45.00
2022-11-30T07:53:43.539Z,50.63
2022-11-30T07:54:43.541Z,50.63
2022-11-30T07:55:43.552Z,50.63
2022-11-30T07:56:43.560Z,56.25
2022-11-30T07:57:43.573Z,56.25
2022-11-30T07:58:43.580Z,56.25
2022-11-30T07:59:43.591Z,61.88
2022-11-30T08:00:43.647Z,61.88
2022-11-30T08:01:43.737Z,61.88
2022-11-30T08:02:43.621Z,67.50
2022-11-30T08:03:43.631Z,67.50
2022-11-30T08:04:43.705Z,67.50
2022-11-30T08:05:43.655Z,73.13
2022-11-30T08:06:43.662Z,73.13
2022-11-30T08:07:43.728Z,73.13
2022-11-30T08:08:43.681Z,78.75
2022-11-30T08:09:43.692Z,78.75
2022-11-30T08:10:43.701Z,78.75
2022-11-30T08:11:43.712Z,84.38
2022-11-30T08:12:43.725Z,84.38
2022-11-30T08:13:43.733Z,84.38
2022-11-30T08:15:17.421Z,84.38
2022-11-30T08:15:43.752Z,84.38
2022-11-30T08:16:43.821Z,90.00
2022-11-30T08:17:43.773Z,90.00
2022-11-30T08:18:43.786Z,95.63
2022-11-30T08:19:43.795Z,95.63
2022-11-30T08:20:49.700Z,101.25
2022-11-30T08:21:43.817Z,101.25
2022-11-30T08:22:43.824Z,101.25
2022-11-30T08:23:43.884Z,106.88
2022-11-30T08:24:43.843Z,106.88
2022-11-30T08:25:43.855Z,106.88
2022-11-30T08:26:43.866Z,106.88
2022-11-30T08:27:43.881Z,112.50
2022-11-30T08:28:43.888Z,112.50
2022-11-30T08:29:43.898Z,112.50
2022-11-30T08:30:44.011Z,112.50
2022-11-30T08:31:43.921Z,106.88
2022-11-30T08:32:43.928Z,106.88
2022-11-30T08:33:43.935Z,106.88
2022-11-30T08:34:43.950Z,106.88
2022-11-30T08:35:43.960Z,118.13
2022-11-30T08:36:47.116Z,112.50
2022-11-30T08:37:43.979Z,112.50
2022-11-30T08:38:43.992Z,118.13
2022-11-30T08:39:44.000Z,118.13
2022-11-30T08:40:44.011Z,118.13
2022-11-30T08:41:44.022Z,123.75
2022-11-30T08:42:44.033Z,123.75
2022-11-30T08:43:44.043Z,123.75
2022-11-30T08:44:44.054Z,123.75
2022-11-30T08:45:44.135Z,129.38
2022-11-30T08:46:51.579Z,129.38
2022-11-30T08:47:44.085Z,129.38
2022-11-30T08:48:44.095Z,129.38
2022-11-30T08:49:44.110Z,135.00
2022-11-30T08:50:44.118Z,135.00
2022-11-30T08:52:15.322Z,135.00
2022-11-30T08:52:44.137Z,135.00
2022-11-30T08:53:44.151Z,140.63
2022-11-30T08:54:44.161Z,140.63
2022-11-30T08:55:44.170Z,140.63
2022-11-30T08:56:44.186Z,140.63
2022-11-30T08:57:44.193Z,140.63
2022-11-30T08:58:44.202Z,140.63
2022-11-30T08:59:44.212Z,140.63
2022-11-30T09:00:44.221Z,140.63
2022-11-30T09:01:44.233Z,146.25
2022-11-30T09:02:44.303Z,146.25
2022-11-30T09:03:44.263Z,146.25
2022-11-30T09:04:44.272Z,151.88
2022-11-30T09:05:44.277Z,151.88
2022-11-30T09:06:44.309Z,157.50
2022-11-30T09:07:44.363Z,163.13
2022-11-30T09:08:44.311Z,168.75
2022-11-30T09:09:44.324Z,168.75
2022-11-30T09:10:44.330Z,174.38
2022-11-30T09:11:44.344Z,174.38
2022-11-30T09:12:44.358Z,180.00
2022-11-30T09:13:44.376Z,191.25
2022-11-30T09:14:44.384Z,202.50
2022-11-30T09:15:44.428Z,196.88
2022-11-30T09:16:44.410Z,202.50
2022-11-30T09:17:44.405Z,208.13
2022-11-30T09:18:44.421Z,208.13
2022-11-30T09:19:44.431Z,208.13
2022-11-30T09:20:44.439Z,208.13
2022-11-30T09:21:49.791Z,208.13
2022-11-30T09:22:44.462Z,208.13
2022-11-30T09:23:44.472Z,202.50
2022-11-30T09:24:44.821Z,202.50
2022-11-30T09:25:44.494Z,202.50
2022-11-30T09:26:44.505Z,196.88
2022-11-30T09:27:44.517Z,196.88
2022-11-30T09:28:44.528Z,191.25
2022-11-30T09:29:44.540Z,191.25
2022-11-30T09:30:44.575Z,185.63
2022-11-30T09:31:44.566Z,185.63
2022-11-30T09:32:44.572Z,185.63
2022-11-30T09:33:44.585Z,185.63
2022-11-30T09:34:44.708Z,185.63
2022-11-30T09:35:44.608Z,185.63
2022-11-30T09:36:44.668Z,185.63
2022-11-30T09:37:44.628Z,185.63
2022-11-30T09:38:44.639Z,191.25
2022-11-30T09:39:44.650Z,196.88
2022-11-30T09:40:44.663Z,202.50
2022-11-30T09:41:44.671Z,208.13
2022-11-30T09:42:44.695Z,208.13
2022-11-30T09:43:44.695Z,213.75
2022-11-30T09:44:45.029Z,213.75
2022-11-30T09:45:44.799Z,219.38
2022-11-30T09:46:44.746Z,219.38
2022-11-30T09:47:44.742Z,225.00
2022-11-30T09:48:44.751Z,225.00
2022-11-30T09:49:44.763Z,230.63
2022-11-30T09:50:44.775Z,230.63
2022-11-30T09:51:44.790Z,236.25
2022-11-30T09:52:44.800Z,241.88
2022-11-30T09:53:44.810Z,253.13
2022-11-30T09:54:44.994Z,247.50
2022-11-30T09:55:44.836Z,253.13
2022-11-30T09:56:44.844Z,258.75
2022-11-30T09:57:44.972Z,258.75
2022-11-30T09:58:44.877Z,264.38
2022-11-30T09:59:44.881Z,270.00
2022-11-30T10:00:44.891Z,275.63
2022-11-30T10:01:46.094Z,281.25
2022-11-30T10:02:45.058Z,281.25
2022-11-30T10:03:44.975Z,281.25
2022-11-30T10:04:45.256Z,281.25
2022-11-30T10:05:44.948Z,286.88
2022-11-30T10:06:44.961Z,286.88
2022-11-30T10:07:45.019Z,286.88
2022-11-30T10:08:50.205Z,286.88
2022-11-30T10:09:53.181Z,281.25
2022-11-30T10:10:45.006Z,281.25
2022-11-30T10:11:45.019Z,281.25
2022-11-30T10:12:45.034Z,281.25
2022-11-30T10:13:45.044Z,281.25
2022-11-30T10:14:45.446Z,286.88
2022-11-30T10:15:45.117Z,292.50
2022-11-30T10:16:45.082Z,292.50
2022-11-30T10:17:45.092Z,298.13
2022-11-30T10:18:45.103Z,298.13
2022-11-30T10:19:45.116Z,298.13
2022-11-30T10:20:45.125Z,303.75
2022-11-30T10:21:45.142Z,303.75
2022-11-30T10:22:45.151Z,303.75
2022-11-30T10:23:45.191Z,303.75
2022-11-30T10:24:45.503Z,309.38
2022-11-30T10:25:45.186Z,303.75
2022-11-30T10:26:45.217Z,309.38
2022-11-30T10:27:45.233Z,315.00
2022-11-30T10:28:47.581Z,315.00
2022-11-30T10:29:45.237Z,326.25
2022-11-30T10:30:45.279Z,315.00
2022-11-30T10:31:45.260Z,315.00
2022-11-30T10:32:45.289Z,315.00
2022-11-30T10:33:45.298Z,320.63
2022-11-30T10:34:45.614Z,315.00
2022-11-30T10:35:45.310Z,315.00
2022-11-30T10:36:45.320Z,326.25
2022-11-30T10:37:45.337Z,320.63
2022-11-30T10:38:45.345Z,320.63
2022-11-30T10:39:45.361Z,320.63
2022-11-30T10:40:45.367Z,320.63
2022-11-30T10:41:45.382Z,320.63
2022-11-30T10:42:45.394Z,326.25
2022-11-30T10:43:45.406Z,326.25
2022-11-30T10:44:45.827Z,320.63
2022-11-30T10:45:45.431Z,315.00
2022-11-30T10:46:45.536Z,309.38
2022-11-30T10:47:45.454Z,315.00
2022-11-30T10:48:45.466Z,303.75
2022-11-30T10:49:45.478Z,298.13
2022-11-30T10:50:45.495Z,292.50
2022-11-30T10:51:45.506Z,286.88
2022-11-30T10:52:45.518Z,281.25
2022-11-30T10:53:45.529Z,281.25
2022-11-30T10:54:45.902Z,275.63
2022-11-30T10:55:45.550Z,275.63
2022-11-30T10:56:45.565Z,281.25
2022-11-30T10:57:45.578Z,281.25
2022-11-30T10:58:45.590Z,281.25
2022-11-30T10:59:45.846Z,286.88
2022-11-30T11:00:45.617Z,292.50
2022-11-30T11:01:45.678Z,298.13
2022-11-30T11:02:45.707Z,303.75
2022-11-30T11:03:45.711Z,303.75
2022-11-30T11:04:45.664Z,303.75
2022-11-30T11:05:45.680Z,298.13
2022-11-30T11:06:45.708Z,298.13
2022-11-30T11:07:45.751Z,292.50
2022-11-30T11:08:45.715Z,286.88
2022-11-30T11:09:45.928Z,281.25
2022-11-30T11:10:45.739Z,281.25
2022-11-30T11:11:45.751Z,275.63
2022-11-30T11:12:45.767Z,275.63
2022-11-30T11:13:45.776Z,281.25
2022-11-30T11:14:45.789Z,281.25
2022-11-30T11:15:45.883Z,281.25
2022-11-30T11:16:45.814Z,281.25
2022-11-30T11:17:45.829Z,281.25
2022-11-30T11:18:45.839Z,281.25
2022-11-30T11:19:46.048Z,281.25
2022-11-30T11:20:45.865Z,281.25
2022-11-30T11:21:45.877Z,281.25
2022-11-30T11:22:45.889Z,281.25
2022-11-30T11:23:45.903Z,281.25
2022-11-30T11:24:45.916Z,281.25
2022-11-30T11:25:45.926Z,275.63
2022-11-30T11:26:45.942Z,275.63
2022-11-30T11:27:45.951Z,275.63
2022-11-30T11:28:45.962Z,270.00
2022-11-30T11:29:46.228Z,270.00
2022-11-30T11:30:46.027Z,264.38
2022-11-30T11:31:46.002Z,264.38
2022-11-30T11:32:46.015Z,264.38
2022-11-30T11:33:46.025Z,264.38
2022-11-30T11:34:50.832Z,264.38
2022-11-30T11:35:46.054Z,270.00
2022-11-30T11:36:46.061Z,270.00
2022-11-30T11:37:46.076Z,270.00
2022-11-30T11:38:46.086Z,270.00
2022-11-30T11:39:46.326Z,264.38
2022-11-30T11:40:46.111Z,264.38
2022-11-30T11:41:46.125Z,264.38
2022-11-30T11:42:46.139Z,264.38
2022-11-30T11:43:46.149Z,264.38
2022-11-30T11:44:46.162Z,264.38
2022-11-30T11:45:46.174Z,264.38
2022-11-30T11:46:46.280Z,264.38
2022-11-30T11:47:46.209Z,264.38
2022-11-30T11:48:46.222Z,264.38
2022-11-30T11:49:46.523Z,258.75
2022-11-30T11:51:46.255Z,258.75
2022-11-30T11:52:46.266Z,258.75
2022-11-30T11:53:52.751Z,258.75
2022-11-30T11:54:46.293Z,253.13
2022-11-30T11:55:46.299Z,247.50
2022-11-30T11:56:46.310Z,247.50
2022-11-30T11:57:46.324Z,247.50
2022-11-30T11:58:46.337Z,247.50
2022-11-30T11:59:46.686Z,247.50
2022-11-30T12:00:46.360Z,247.50
2022-11-30T12:01:46.374Z,241.88
2022-11-30T12:02:46.401Z,241.88
2022-11-30T12:03:46.398Z,236.25
2022-11-30T12:04:46.411Z,236.25
2022-11-30T12:05:46.424Z,236.25
2022-11-30T12:06:46.434Z,236.25
2022-11-30T12:07:46.502Z,230.63
2022-11-30T12:08:46.463Z,230.63
2022-11-30T12:09:46.716Z,225.00
2022-11-30T12:10:53.730Z,219.38
2022-11-30T12:11:46.496Z,219.38
2022-11-30T12:12:50.638Z,219.38
2022-11-30T12:13:46.524Z,225.00
2022-11-30T12:14:46.535Z,225.00
2022-11-30T12:15:46.559Z,230.63
2022-11-30T12:16:46.560Z,230.63
2022-11-30T12:17:46.571Z,236.25
2022-11-30T12:18:46.786Z,236.25
2022-11-30T12:19:46.737Z,236.25
2022-11-30T12:20:46.609Z,236.25
2022-11-30T12:21:46.622Z,230.63
2022-11-30T12:22:46.636Z,230.63
2022-11-30T12:23:46.646Z,225.00
2022-11-30T12:24:46.658Z,225.00
2022-11-30T12:25:46.671Z,219.38
2022-11-30T12:26:46.686Z,213.75
2022-11-30T12:27:52.021Z,219.38
2022-11-30T12:28:46.708Z,208.13
2022-11-30T12:29:47.046Z,208.13
2022-11-30T12:30:46.732Z,208.13
2022-11-30T12:31:46.799Z,208.13
2022-11-30T12:32:46.759Z,202.50
2022-11-30T12:33:46.772Z,202.50
2022-11-30T12:34:46.784Z,208.13
2022-11-30T12:35:46.795Z,213.75
2022-11-30T12:36:46.807Z,219.38
2022-11-30T12:37:47.865Z,219.38
2022-11-30T12:38:46.835Z,219.38
2022-11-30T12:39:47.188Z,219.38
2022-11-30T12:40:46.859Z,219.38
2022-11-30T12:41:46.870Z,213.75
2022-11-30T12:42:46.883Z,208.13
2022-11-30T12:43:46.893Z,202.50
2022-11-30T12:44:46.906Z,196.88
2022-11-30T12:45:46.920Z,196.88
2022-11-30T12:46:46.960Z,191.25
2022-11-30T12:47:46.947Z,191.25
2022-11-30T12:48:47.081Z,185.63
2022-11-30T12:49:47.242Z,185.63
2022-11-30T12:50:46.982Z,185.63
2022-11-30T12:51:46.996Z,185.63
2022-11-30T12:52:47.015Z,185.63
2022-11-30T12:53:47.020Z,185.63
2022-11-30T12:54:47.248Z,191.25
2022-11-30T12:55:47.044Z,191.25
2022-11-30T12:56:47.055Z,191.25
2022-11-30T12:57:47.068Z,196.88
2022-11-30T12:58:47.078Z,196.88